createdAt,value
2023-04-29T00:01:42.123Z,64.20
2023-04-29T00:04:09.564Z,64.23
2023-04-29T00:06:37.389Z,64.40
2023-04-29T00:09:04.687Z,64.35
2023-04-29T00:11:31.724Z,64.30
2023-04-29T00:13:58.601Z,64.27
2023-04-29T00:16:26.206Z,64.30
2023-04-29T00:18:53.150Z,64.32
2023-04-29T00:21:21.050Z,64.15
2023-04-29T00:23:48.046Z,64.07
2023-04-29T00:26:15.241Z,64.22
2023-04-29T00:28:43.178Z,64.13
2023-04-29T00:31:10.389Z,64.15
2023-04-29T00:33:37.295Z,64.26
2023-04-29T00:36:04.712Z,64.34
2023-04-29T00:38:31.607Z,64.37
2023-04-29T00:40:58.475Z,64.63
2023-04-29T00:43:25.333Z,64.74
2023-04-29T00:45:52.332Z,64.78
2023-04-29T00:48:19.369Z,64.71
2023-04-29T00:50:46.287Z,64.69
2023-04-29T00:53:13.419Z,64.56
2023-04-29T00:55:41.161Z,64.47
2023-04-29T00:58:10.046Z,64.49
2023-04-29T01:00:37.218Z,64.54
2023-04-29T01:03:05.325Z,64.52
2023-04-29T01:05:33.025Z,64.43
2023-04-29T01:08:29.164Z,64.41
2023-04-29T01:11:16.500Z,64.77
2023-04-29T01:13:50.156Z,65.06
2023-04-29T01:16:42.727Z,65.31
2023-04-29T01:19:20.038Z,65.09
2023-04-29T01:21:50.991Z,65.03
2023-04-29T01:24:18.121Z,64.98
2023-04-29T01:26:52.709Z,65.07
2023-04-29T01:29:45.872Z,65.23
2023-04-29T01:32:15.682Z,64.99
2023-04-29T01:35:19.113Z,64.95
2023-04-29T01:38:05.434Z,64.92
2023-04-29T01:40:37.704Z,64.85
2023-04-29T01:43:11.898Z,64.93
2023-04-29T01:45:41.431Z,64.96
2023-04-29T01:48:09.122Z,65.08
2023-04-29T01:50:36.026Z,65.05
2023-04-29T01:53:12.131Z,64.77
2023-04-29T01:55:39.393Z,64.84
2023-04-29T01:58:20.998Z,64.86
2023-04-29T02:01:14.348Z,65.04
2023-04-29T02:03:41.639Z,65.09
2023-04-29T02:06:10.013Z,65.18
2023-04-29T02:08:37.487Z,65.17
2023-04-29T02:11:04.455Z,65.14
2023-04-29T02:13:34.047Z,65.54
2023-04-29T02:16:08.870Z,65.88
2023-04-29T02:18:36.405Z,65.56
2023-04-29T02:21:04.564Z,65.54
2023-04-29T02:23:34.018Z,65.50
2023-04-29T02:26:01.823Z,65.73
2023-04-29T02:28:28.995Z,65.91
2023-04-29T02:30:55.968Z,66.23
2023-04-29T02:33:22.895Z,66.20
2023-04-29T02:35:49.787Z,66.28
2023-04-29T02:38:16.885Z,66.17
2023-04-29T02:40:46.512Z,66.26
2023-04-29T02:43:13.366Z,66.17
2023-04-29T02:45:40.317Z,66.24
2023-04-29T02:48:07.319Z,66.10
2023-04-29T02:50:34.436Z,65.89
2023-04-29T02:53:01.537Z,65.92
2023-04-29T02:55:28.486Z,65.89
2023-04-29T02:57:58.251Z,65.89
2023-04-29T03:00:25.503Z,65.84
2023-04-29T03:02:52.544Z,66.12
2023-04-29T03:05:19.740Z,66.34
2023-04-29T03:07:46.728Z,66.36
2023-04-29T03:10:14.008Z,66.41
2023-04-29T03:12:41.099Z,66.23
2023-04-29T03:15:08.377Z,66.31
2023-04-29T03:17:35.409Z,66.31
2023-04-29T03:20:02.460Z,66.21
2023-04-29T03:22:29.539Z,66.28
2023-04-29T03:24:56.519Z,66.32
2023-04-29T03:27:23.464Z,66.56
2023-04-29T03:32:03.008Z,66.38
2023-04-29T03:34:30.505Z,66.37
2023-04-29T03:37:14.142Z,66.68
2023-04-29T03:39:46.295Z,66.75
2023-04-29T03:42:14.104Z,66.82
2023-04-29T03:44:41.039Z,66.71
2023-04-29T03:47:09.497Z,66.76
2023-04-29T03:49:36.536Z,66.83
2023-04-29T03:52:04.846Z,66.72
2023-04-29T03:54:31.699Z,66.79
2023-04-29T03:56:58.720Z,66.92
2023-04-29T03:59:25.800Z,66.84
2023-04-29T04:01:54.387Z,67.02
2023-04-29T04:04:22.180Z,67.24
2023-04-29T04:06:51.774Z,67.29
2023-04-29T04:09:20.681Z,67.24
2023-04-29T04:11:47.776Z,67.36
2023-04-29T04:14:14.887Z,67.43
2023-04-29T04:16:41.997Z,67.60
2023-04-29T04:19:09.849Z,67.43
2023-04-29T04:21:37.921Z,67.59
2023-04-29T04:24:07.112Z,67.62
2023-04-29T04:26:35.359Z,67.54
2023-04-29T04:29:08.436Z,67.49
2023-04-29T04:31:46.918Z,67.44
2023-04-29T04:34:14.500Z,66.96
2023-04-29T04:36:42.357Z,67.27
2023-04-29T04:39:09.436Z,66.95
2023-04-29T04:41:36.331Z,66.74
2023-04-29T04:44:03.454Z,66.30
2023-04-29T04:46:40.181Z,66.32
2023-04-29T04:49:16.017Z,66.68
2023-04-29T04:51:49.134Z,66.25
2023-04-29T04:54:15.983Z,65.53
2023-04-29T04:56:43.188Z,65.22
2023-04-29T04:59:10.099Z,65.12
2023-04-29T05:01:37.645Z,65.23
2023-04-29T05:04:04.774Z,65.72
2023-04-29T05:06:31.841Z,65.91
2023-04-29T05:08:59.474Z,65.52
2023-04-29T05:11:26.393Z,65.32
2023-04-29T05:14:08.934Z,65.29
2023-04-29T05:16:36.017Z,65.32
2023-04-29T05:19:02.937Z,65.21
2023-04-29T05:21:32.551Z,65.25
2023-04-29T05:23:59.715Z,64.73
2023-04-29T05:26:26.611Z,64.68
2023-04-29T05:28:55.516Z,64.50
2023-04-29T05:31:22.535Z,63.97
2023-04-29T05:33:49.641Z,63.89
2023-04-29T05:36:16.792Z,63.40
2023-04-29T05:38:45.372Z,63.19
2023-04-29T05:41:14.239Z,62.94
2023-04-29T05:44:00.027Z,63.13
2023-04-29T05:46:27.076Z,62.84
2023-04-29T05:48:54.095Z,63.00
2023-04-29T05:51:21.041Z,63.00
2023-04-29T05:53:49.092Z,62.44
2023-04-29T05:56:16.672Z,61.64
2023-04-29T05:58:43.553Z,61.03
2023-04-29T06:01:10.683Z,60.37
2023-04-29T06:03:37.874Z,60.45
2023-04-29T06:06:43.837Z,60.66
2023-04-29T06:09:46.268Z,60.21
2023-04-29T06:12:13.457Z,59.20
2023-04-29T06:14:42.372Z,59.03
2023-04-29T06:17:09.279Z,58.08
2023-04-29T06:19:36.323Z,57.42
2023-04-29T06:22:03.365Z,57.97
2023-04-29T06:24:30.950Z,56.80
2023-04-29T06:26:58.103Z,55.63
2023-04-29T06:29:26.216Z,55.48
2023-04-29T06:31:54.418Z,55.52
2023-04-29T06:34:21.481Z,54.77
2023-04-29T06:37:08.719Z,55.38
2023-04-29T06:40:08.591Z,55.28
2023-04-29T06:42:58.882Z,54.88
2023-04-29T06:46:00.950Z,54.59
2023-04-29T06:48:39.727Z,54.14
2023-04-29T06:51:07.149Z,53.45
2023-04-29T06:53:36.806Z,53.53
2023-04-29T06:56:03.804Z,52.94
2023-04-29T06:58:30.825Z,51.34
2023-04-29T07:00:57.760Z,51.63
2023-04-29T07:03:24.791Z,51.80
2023-04-29T07:05:51.898Z,51.22
2023-04-29T07:08:18.910Z,50.98
2023-04-29T07:10:54.607Z,50.57
2023-04-29T07:13:24.095Z,49.91
2023-04-29T07:15:51.159Z,49.34
2023-04-29T07:18:18.451Z,49.22
2023-04-29T07:20:46.118Z,49.26
2023-04-29T07:23:13.173Z,48.29
2023-04-29T07:25:41.264Z,47.89
2023-04-29T07:28:11.021Z,47.10
2023-04-29T07:30:37.858Z,46.68
2023-04-29T07:33:04.890Z,47.65
2023-04-29T07:35:32.077Z,46.07
2023-04-29T07:37:58.955Z,44.62
2023-04-29T07:40:26.397Z,43.82
2023-04-29T07:42:56.614Z,43.09
2023-04-29T07:45:23.456Z,43.91
2023-04-29T07:47:50.482Z,43.67
2023-04-29T07:50:17.488Z,43.01
2023-04-29T07:52:44.414Z,43.10
2023-04-29T07:55:11.314Z,42.75
2023-04-29T07:57:38.839Z,42.37
2023-04-29T08:00:07.203Z,41.71
2023-04-29T08:02:42.723Z,41.93
2023-04-29T08:05:12.201Z,40.79
2023-04-29T08:07:39.346Z,40.15
2023-04-29T08:10:06.868Z,40.28
2023-04-29T08:12:37.118Z,40.16
2023-04-29T08:15:05.042Z,40.13
2023-04-29T08:17:32.078Z,40.35
2023-04-29T08:20:01.423Z,40.10
2023-04-29T08:22:28.284Z,40.25
2023-04-29T08:24:55.191Z,40.47
2023-04-29T08:27:22.085Z,40.10
2023-04-29T08:29:49.230Z,39.51
2023-04-29T08:35:08.640Z,38.77
2023-04-29T08:37:35.504Z,39.09
2023-04-29T08:40:03.801Z,38.75
2023-04-29T08:42:34.365Z,38.29
2023-04-29T08:45:01.594Z,37.52
2023-04-29T08:47:31.933Z,37.14
2023-04-29T08:50:05.983Z,37.45
2023-04-29T08:52:33.119Z,36.97
2023-04-29T08:55:02.520Z,37.00
2023-04-29T08:57:30.258Z,36.55
2023-04-29T08:59:59.584Z,36.57
2023-04-29T09:02:26.486Z,36.87
2023-04-29T09:05:06.088Z,37.21
2023-04-29T09:07:33.307Z,37.14
2023-04-29T09:10:00.183Z,37.26
2023-04-29T09:12:27.090Z,37.14
2023-04-29T09:14:54.192Z,36.62
2023-04-29T09:17:42.387Z,36.23
2023-04-29T09:20:21.841Z,36.18
2023-04-29T09:22:52.955Z,36.90
2023-04-29T09:25:20.878Z,36.79
2023-04-29T09:27:47.864Z,36.67
2023-04-29T09:30:16.637Z,36.10
2023-04-29T09:32:45.170Z,36.21
2023-04-29T09:35:21.329Z,36.09
2023-04-29T09:37:48.245Z,36.05
2023-04-29T09:40:31.761Z,36.08
2023-04-29T09:42:59.249Z,36.03
2023-04-29T09:45:58.778Z,37.08
2023-04-29T09:48:27.129Z,36.72
2023-04-29T09:51:02.276Z,36.49
2023-04-29T09:53:31.769Z,36.20
2023-04-29T09:56:02.451Z,35.95
2023-04-29T09:58:40.408Z,35.66
2023-04-29T10:01:07.586Z,35.93
2023-04-29T10:03:36.054Z,36.10
2023-04-29T10:06:04.640Z,35.68
2023-04-29T10:08:31.901Z,35.73
2023-04-29T10:11:02.924Z,35.78
2023-04-29T10:13:29.914Z,35.99
2023-04-29T10:16:27.852Z,35.53
2023-04-29T10:18:56.540Z,35.43
2023-04-29T10:21:27.790Z,35.67
2023-04-29T10:23:54.755Z,35.12
2023-04-29T10:26:21.621Z,35.30
2023-04-29T10:28:48.631Z,35.24
2023-04-29T10:31:16.883Z,35.15
2023-04-29T10:33:46.037Z,35.20
2023-04-29T10:36:13.198Z,34.41
2023-04-29T10:38:41.822Z,34.52
2023-04-29T10:41:10.696Z,34.20
2023-04-29T10:43:37.603Z,34.68
2023-04-29T10:46:16.718Z,34.56
2023-04-29T10:48:44.387Z,34.20
2023-04-29T10:51:11.283Z,33.73
2023-04-29T10:54:07.654Z,33.66
2023-04-29T10:56:38.708Z,33.42
2023-04-29T10:59:08.357Z,33.83
2023-04-29T11:01:51.926Z,33.28
2023-04-29T11:04:20.246Z,33.18
2023-04-29T11:06:54.843Z,33.45
2023-04-29T11:09:27.645Z,32.87
2023-04-29T11:12:03.685Z,33.37
2023-04-29T11:14:38.950Z,33.68
2023-04-29T11:17:09.405Z,32.70
2023-04-29T11:19:45.562Z,32.76
2023-04-29T11:22:18.783Z,32.62
2023-04-29T11:25:02.231Z,33.23
2023-04-29T11:27:33.490Z,32.72
2023-04-29T11:30:00.951Z,32.24
2023-04-29T11:32:29.038Z,32.35
2023-04-29T11:34:56.528Z,32.76
2023-04-29T11:37:26.210Z,33.20
2023-04-29T11:39:59.599Z,32.60
2023-04-29T11:42:27.342Z,32.30
2023-04-29T11:44:58.063Z,32.38
2023-04-29T11:47:29.560Z,32.03
2023-04-29T11:50:07.984Z,32.18
2023-04-29T11:52:39.194Z,33.06
2023-04-29T11:55:09.031Z,32.80
2023-04-29T11:57:36.746Z,32.60
2023-04-29T12:00:07.289Z,33.01
2023-04-29T12:02:35.812Z,32.76
2023-04-29T12:07:35.044Z,32.63
2023-04-29T12:10:01.967Z,32.87
2023-04-29T12:12:31.086Z,32.60
2023-04-29T12:15:00.846Z,32.87
2023-04-29T12:17:30.429Z,32.65
2023-04-29T12:19:59.547Z,32.69
2023-04-29T12:22:39.165Z,32.67
2023-04-29T12:25:07.426Z,32.62
2023-04-29T12:27:35.834Z,32.81
2023-04-29T12:30:05.375Z,32.65
2023-04-29T12:32:34.444Z,32.42
2023-04-29T12:35:06.363Z,32.95
2023-04-29T12:37:36.342Z,32.96
2023-04-29T12:40:03.970Z,32.84
2023-04-29T12:42:34.532Z,31.90
2023-04-29T12:45:01.463Z,32.10
2023-04-29T12:47:33.900Z,32.03
2023-04-29T12:50:01.028Z,32.46
2023-04-29T12:52:28.390Z,32.00
2023-04-29T12:54:56.575Z,31.91
2023-04-29T12:57:25.237Z,31.67
2023-04-29T12:59:52.582Z,31.89
2023-04-29T13:02:19.653Z,32.00
2023-04-29T13:04:49.304Z,31.35
2023-04-29T13:07:19.482Z,31.33
2023-04-29T13:09:46.618Z,31.49
2023-04-29T13:12:13.494Z,32.11
2023-04-29T13:14:40.444Z,32.07
2023-04-29T13:17:07.346Z,31.93
2023-04-29T13:19:49.616Z,31.87
2023-04-29T13:22:18.424Z,31.61
2023-04-29T13:24:45.980Z,31.75
2023-04-29T13:27:12.967Z,31.45
2023-04-29T13:29:40.207Z,31.22
2023-04-29T13:32:08.379Z,31.70
2023-04-29T13:34:36.057Z,31.50
2023-04-29T13:37:02.951Z,31.53
2023-04-29T13:39:29.921Z,31.17
2023-04-29T13:41:59.279Z,31.38
2023-04-29T13:44:33.227Z,30.80
2023-04-29T13:47:06.955Z,31.23
2023-04-29T13:56:15.557Z,30.71
2023-04-29T14:10:32.907Z,30.14
2023-04-29T14:12:59.898Z,30.77
2023-04-29T14:15:27.034Z,31.05
2023-04-29T14:17:55.252Z,31.24
2023-04-29T14:20:22.393Z,31.30
2023-04-29T14:22:49.246Z,30.91
2023-04-29T14:25:16.246Z,30.74
2023-04-29T14:27:43.155Z,30.48
2023-04-29T14:30:10.496Z,30.45
2023-04-29T14:32:37.449Z,30.69
2023-04-29T14:35:04.986Z,30.99
2023-04-29T14:37:31.888Z,30.92
2023-04-29T14:39:58.826Z,30.71
2023-04-29T14:42:25.752Z,31.21
2023-04-29T14:44:54.560Z,31.04
2023-04-29T14:47:21.968Z,30.89
2023-04-29T14:49:48.849Z,30.75
2023-04-29T14:52:16.208Z,30.60
2023-04-29T14:54:43.113Z,30.63
2023-04-29T14:57:10.864Z,30.56
2023-04-29T14:59:37.776Z,30.96
2023-04-29T15:02:04.810Z,31.14
2023-04-29T15:04:31.850Z,31.02
2023-04-29T15:06:58.822Z,30.28
2023-04-29T15:09:27.019Z,30.15
2023-04-29T15:11:53.959Z,30.19
2023-04-29T15:14:21.019Z,29.92
2023-04-29T15:16:49.118Z,30.08
2023-04-29T15:19:16.127Z,30.05
2023-04-29T15:21:43.037Z,30.19
2023-04-29T15:24:09.944Z,30.35
2023-04-29T15:26:37.269Z,30.73
2023-04-29T15:29:04.249Z,30.66
2023-04-29T15:31:31.204Z,30.46
2023-04-29T15:33:58.636Z,30.18
2023-04-29T15:36:32.513Z,30.51
2023-04-29T15:39:04.408Z,30.68
2023-04-29T15:41:31.271Z,30.41
2023-04-29T15:43:58.263Z,30.59
2023-04-29T15:49:31.199Z,30.98
2023-04-29T15:51:59.168Z,30.91
2023-04-29T15:54:26.232Z,30.68
2023-04-29T15:56:53.432Z,30.80
2023-04-29T15:59:20.432Z,31.03
2023-04-29T16:01:47.403Z,30.55
2023-04-29T16:04:16.896Z,30.40
2023-04-29T16:06:43.960Z,30.37
2023-04-29T16:09:12.384Z,30.39
2023-04-29T16:11:39.352Z,30.82
2023-04-29T16:14:06.518Z,30.86
2023-04-29T16:16:33.493Z,30.94
2023-04-29T16:19:00.388Z,31.02
2023-04-29T16:21:27.756Z,31.20
2023-04-29T16:23:54.722Z,31.36
2023-04-29T16:26:21.670Z,31.43
2023-04-29T16:28:48.537Z,31.29
2023-04-29T16:31:15.809Z,31.25
2023-04-29T16:33:42.830Z,31.47
2023-04-29T16:36:09.916Z,31.33
2023-04-29T16:38:38.344Z,31.46
2023-04-29T16:48:45.899Z,31.81
2023-04-29T16:51:12.879Z,31.71
2023-04-29T16:53:39.843Z,32.14
2023-04-29T16:56:07.520Z,32.57
2023-04-29T16:58:41.060Z,32.77
2023-04-29T17:01:09.383Z,32.75
2023-04-29T17:03:36.676Z,32.96
2023-04-29T17:06:05.069Z,32.97
2023-04-29T17:08:32.038Z,33.03
2023-04-29T17:11:03.816Z,33.32
2023-04-29T17:13:30.760Z,33.66
2023-04-29T17:15:57.764Z,33.62
2023-04-29T17:18:28.272Z,33.62
2023-04-29T17:20:55.892Z,34.03
2023-04-29T17:23:22.743Z,34.10
2023-04-29T17:25:49.736Z,34.16
2023-04-29T17:28:21.346Z,34.46
2023-04-29T17:30:59.749Z,34.47
2023-04-29T17:33:35.060Z,34.59
2023-04-29T17:36:03.595Z,35.03
2023-04-29T17:38:30.738Z,35.15
2023-04-29T17:40:57.940Z,35.44
2023-04-29T17:43:25.232Z,35.64
2023-04-29T17:45:52.256Z,35.99
2023-04-29T17:48:20.502Z,36.34
2023-04-29T17:50:49.543Z,36.40
2023-04-29T17:53:16.831Z,36.79
2023-04-29T17:55:47.154Z,37.04
2023-04-29T17:58:14.068Z,37.63
2023-04-29T18:00:41.866Z,37.86
2023-04-29T18:03:08.896Z,38.25
2023-04-29T18:05:35.902Z,38.53
2023-04-29T18:08:02.900Z,38.89
2023-04-29T18:10:30.358Z,39.20
2023-04-29T18:12:57.533Z,39.56
2023-04-29T18:15:24.456Z,39.91
2023-04-29T18:17:56.300Z,40.21
2023-04-29T18:20:23.393Z,40.55
2023-04-29T18:22:50.740Z,40.60
2023-04-29T18:25:17.754Z,40.77
2023-04-29T18:27:44.577Z,40.90
2023-04-29T18:30:11.749Z,40.98
2023-04-29T18:32:41.419Z,41.06
2023-04-29T18:35:10.625Z,41.20
2023-04-29T18:37:37.738Z,41.16
2023-04-29T18:40:05.784Z,41.63
2023-04-29T18:42:33.224Z,41.88
2023-04-29T18:45:00.167Z,42.29
2023-04-29T18:47:27.175Z,42.72
2023-04-29T18:49:57.517Z,42.75
2023-04-29T18:52:24.631Z,43.41
2023-04-29T18:54:57.008Z,44.16
2023-04-29T18:57:26.829Z,44.45
2023-04-29T18:59:56.903Z,44.41
2023-04-29T19:02:27.732Z,44.96
2023-04-29T19:04:57.633Z,45.72
2023-04-29T19:07:24.650Z,46.32
2023-04-29T19:09:51.668Z,46.35
2023-04-29T19:12:18.605Z,46.65
2023-04-29T19:14:45.446Z,46.99
2023-04-29T19:17:12.274Z,46.75
2023-04-29T19:19:39.240Z,47.05
2023-04-29T19:22:09.010Z,47.23
2023-04-29T19:24:37.165Z,46.89
2023-04-29T19:27:04.217Z,47.13
2023-04-29T19:29:35.819Z,47.65
2023-04-29T19:32:03.678Z,47.82
2023-04-29T19:34:30.947Z,47.98
2023-04-29T19:36:57.990Z,47.64
2023-04-29T19:39:25.498Z,48.02
2023-04-29T19:41:52.364Z,48.54
2023-04-29T19:44:19.226Z,48.91
2023-04-29T19:46:46.866Z,49.10
2023-04-29T19:51:53.186Z,48.43
2023-04-29T19:54:20.129Z,48.54
2023-04-29T19:56:47.027Z,48.47
2023-04-29T19:59:13.911Z,48.61
2023-04-29T20:01:41.384Z,48.63
2023-04-29T20:04:09.227Z,49.39
2023-04-29T20:06:37.751Z,50.13
2023-04-29T20:09:04.808Z,49.93
2023-04-29T20:11:31.995Z,49.97
2023-04-29T20:13:58.999Z,50.09
2023-04-29T20:16:27.878Z,50.31
2023-04-29T20:18:54.879Z,50.93
2023-04-29T20:21:21.763Z,51.78
2023-04-29T20:23:49.257Z,52.06
2023-04-29T20:26:17.321Z,52.49
2023-04-29T20:28:49.863Z,52.77
2023-04-29T20:31:18.000Z,53.12
2023-04-29T20:33:44.813Z,53.48
2023-04-29T20:36:12.047Z,53.65
2023-04-29T20:38:39.361Z,53.24
2023-04-29T20:41:06.295Z,53.46
2023-04-29T20:43:33.204Z,54.03
2023-04-29T20:46:00.867Z,54.49
2023-04-29T20:48:28.470Z,54.51
2023-04-29T20:50:55.660Z,54.65
2023-04-29T20:53:22.669Z,54.99
2023-04-29T20:55:49.681Z,55.31
2023-04-29T20:58:16.547Z,55.30
2023-04-29T21:00:43.787Z,55.66
2023-04-29T21:03:10.895Z,55.85
2023-04-29T21:05:37.806Z,55.70
2023-04-29T21:08:04.993Z,55.62
2023-04-29T21:10:31.923Z,55.52
2023-04-29T21:12:58.980Z,55.57
2023-04-29T21:15:27.066Z,55.73
2023-04-29T21:17:54.018Z,56.01
2023-04-29T21:20:21.932Z,56.34
2023-04-29T21:22:48.954Z,56.66
2023-04-29T21:25:15.925Z,56.73
2023-04-29T21:27:42.874Z,57.11
2023-04-29T21:30:10.295Z,57.33
2023-04-29T21:32:37.222Z,57.37
2023-04-29T21:35:04.263Z,57.48
2023-04-29T21:37:31.284Z,57.83
2023-04-29T21:40:00.431Z,58.07
2023-04-29T21:42:27.301Z,58.18
2023-04-29T21:44:55.573Z,58.01
2023-04-29T21:47:22.495Z,57.80
2023-04-29T21:49:50.499Z,57.90
2023-04-29T21:52:17.572Z,58.04
2023-04-29T21:54:44.676Z,58.02
2023-04-29T21:57:11.797Z,58.21
2023-04-29T21:59:38.849Z,58.54
2023-04-29T22:02:21.985Z,58.62
2023-04-29T22:04:49.980Z,58.82
2023-04-29T22:07:17.442Z,58.83
2023-04-29T22:09:49.565Z,58.88
2023-04-29T22:12:17.970Z,59.28
2023-04-29T22:14:45.018Z,59.60
2023-04-29T22:17:13.030Z,59.51
2023-04-29T22:19:40.048Z,59.31
2023-04-29T22:22:07.880Z,59.20
2023-04-29T22:24:34.854Z,59.20
2023-04-29T22:27:03.615Z,59.13
2023-04-29T22:29:30.764Z,59.24
2023-04-29T22:31:57.840Z,59.29
2023-04-29T22:34:24.985Z,59.47
2023-04-29T22:36:51.853Z,59.58
2023-04-29T22:39:18.836Z,59.52
2023-04-29T22:41:45.832Z,59.80
2023-04-29T22:44:12.804Z,60.00
2023-04-29T22:46:39.734Z,59.93
2023-04-29T22:49:06.800Z,60.03
2023-04-29T22:51:33.686Z,60.35
2023-04-29T22:54:00.658Z,60.77
2023-04-29T22:56:28.994Z,61.08
2023-04-29T22:58:56.051Z,61.15
2023-04-29T23:01:23.008Z,61.24
2023-04-29T23:03:50.058Z,61.14
2023-04-29T23:06:17.015Z,61.29
2023-04-29T23:08:44.688Z,61.10
2023-04-29T23:11:12.167Z,61.02
2023-04-29T23:13:39.400Z,61.05
2023-04-29T23:16:08.568Z,61.10
2023-04-29T23:18:37.130Z,61.29
2023-04-29T23:21:04.366Z,61.29
2023-04-29T23:23:31.492Z,61.33
2023-04-29T23:25:58.457Z,61.26
2023-04-29T23:28:25.495Z,61.29
2023-04-29T23:30:52.417Z,61.64
2023-04-29T23:33:19.282Z,61.79
2023-04-29T23:35:50.504Z,61.44
2023-04-29T23:38:18.068Z,61.45
2023-04-29T23:40:46.456Z,61.46
2023-04-29T23:43:15.057Z,61.52
2023-04-29T23:45:44.268Z,61.63
2023-04-29T23:48:12.244Z,61.68
2023-04-29T23:50:39.245Z,61.84
2023-04-29T23:53:06.385Z,61.79
2023-04-29T23:55:33.586Z,61.72
2023-04-29T23:58:00.801Z,61.76
